createdAt,value
2023-01-31T02:17:34.241Z,98332.27
2023-01-31T02:20:26.926Z,98255.45
2023-01-31T02:23:28.891Z,98263.73
2023-01-31T02:26:11.230Z,98265.80
2023-01-31T02:28:58.859Z,98270.25
2023-01-31T02:32:05.377Z,98272.51
2023-01-31T02:35:03.822Z,98279.80
2023-01-31T02:37:37.113Z,98279.70
2023-01-31T02:40:35.291Z,98280.08
2023-01-31T02:43:11.077Z,98283.58
2023-01-31T02:45:58.267Z,98285.61
2023-01-31T02:48:49.077Z,98287.94
2023-01-31T02:51:31.451Z,98294.17
2023-01-31T02:54:03.259Z,98297.03
2023-01-31T02:56:33.862Z,98303.04
2023-01-31T02:59:27.223Z,98313.09
2023-01-31T03:01:58.556Z,98316.95
2023-01-31T03:04:31.238Z,98321.17
2023-01-31T03:07:02.660Z,98322.03
2023-01-31T03:09:37.331Z,98318.85
2023-01-31T03:12:12.904Z,98314.38
2023-01-31T03:15:01.070Z,98309.28
2023-01-31T03:17:54.706Z,98302.95
2023-01-31T03:20:44.546Z,98297.27
2023-01-31T03:23:21.577Z,98293.05
2023-01-31T03:25:50.593Z,98288.08
2023-01-31T03:28:24.461Z,98288.39
2023-01-31T03:31:28.382Z,98283.59
2023-01-31T03:34:00.130Z,98285.36
2023-01-31T03:36:32.617Z,98293.41
2023-01-31T03:39:32.528Z,98282.19
2023-01-31T03:42:09.704Z,98268.54
2023-01-31T03:44:48.357Z,98274.12
2023-01-31T03:47:22.359Z,98273.77
2023-01-31T03:49:52.632Z,98274.00
2023-01-31T03:52:25.495Z,98277.73
2023-01-31T03:54:55.692Z,98272.20
2023-01-31T03:57:45.109Z,98261.63
2023-01-31T04:00:15.166Z,98254.29
2023-01-31T04:02:54.573Z,98248.95
2023-01-31T04:05:25.060Z,98246.05
2023-01-31T04:07:55.871Z,98238.91
2023-01-31T04:10:26.755Z,98230.67
2023-01-31T04:12:58.189Z,98226.16
2023-01-31T04:15:27.042Z,98215.24
2023-01-31T04:17:55.850Z,98208.05
2023-01-31T04:20:24.756Z,98202.69
2023-01-31T04:22:53.166Z,98193.45
2023-01-31T04:25:24.531Z,98183.89
2023-01-31T04:27:53.084Z,98173.26
2023-01-31T04:30:21.643Z,98167.96
2023-01-31T04:32:51.560Z,98162.63
2023-01-31T04:35:21.870Z,98154.91
2023-01-31T04:37:51.118Z,98147.64
2023-01-31T04:40:22.425Z,98143.05
2023-01-31T04:42:51.176Z,98137.58
2023-01-31T04:45:19.906Z,98132.39
2023-01-31T04:47:49.511Z,98132.11
2023-01-31T04:50:18.735Z,98124.46
2023-01-31T04:52:51.217Z,98125.27
2023-01-31T04:55:19.955Z,98117.48
2023-01-31T04:57:48.914Z,98118.19
2023-01-31T05:00:18.625Z,98119.38
2023-01-31T05:02:47.557Z,98124.80
2023-01-31T05:05:16.108Z,98121.15
2023-01-31T05:07:45.096Z,98116.64
2023-01-31T05:10:14.011Z,98114.32
2023-01-31T05:12:42.535Z,98115.98
2023-01-31T05:15:14.275Z,98116.08
2023-01-31T05:17:43.160Z,98114.95
2023-01-31T05:20:12.125Z,98118.61
2023-01-31T05:22:41.907Z,98118.36
2023-01-31T05:25:10.848Z,98119.01
2023-01-31T05:27:39.830Z,98115.60
2023-01-31T05:30:09.831Z,98114.36
2023-01-31T05:32:40.095Z,98113.28
2023-01-31T05:35:08.794Z,98112.35
2023-01-31T05:37:37.254Z,98115.58
2023-01-31T05:40:12.341Z,98114.53
2023-01-31T05:42:41.547Z,98113.79
2023-01-31T05:45:11.180Z,98110.96
2023-01-31T05:47:39.966Z,98104.52
2023-01-31T05:50:11.729Z,98095.95
2023-01-31T05:52:40.928Z,98093.40
2023-01-31T05:55:09.609Z,98094.07
2023-01-31T05:57:38.137Z,98093.72
2023-01-31T06:00:08.610Z,98095.45
2023-01-31T06:02:40.973Z,98096.55
2023-01-31T06:05:10.411Z,98090.51
2023-01-31T06:07:43.081Z,98081.98
2023-01-31T06:10:12.203Z,98078.39
2023-01-31T06:12:40.932Z,98078.19
2023-01-31T06:15:10.625Z,98078.80
2023-01-31T06:17:39.618Z,98075.08
2023-01-31T06:20:11.068Z,98067.61
2023-01-31T06:22:39.781Z,98064.66
2023-01-31T06:25:09.129Z,98060.15
2023-01-31T06:27:41.020Z,98055.95
2023-01-31T06:30:11.271Z,98050.20
2023-01-31T06:32:39.868Z,98053.46
2023-01-31T06:35:08.915Z,98053.52
2023-01-31T06:37:38.112Z,98047.44
2023-01-31T06:40:07.403Z,98044.89
2023-01-31T06:42:36.055Z,98036.38
2023-01-31T06:45:04.857Z,98030.54
2023-01-31T06:47:33.962Z,98021.59
2023-01-31T06:50:02.467Z,98021.63
2023-01-31T06:52:32.479Z,98023.67
2023-01-31T06:55:00.926Z,98028.45
2023-01-31T06:57:29.634Z,98037.18
2023-01-31T07:00:00.278Z,98036.09
2023-01-31T07:02:29.109Z,98041.47
2023-01-31T07:04:57.715Z,98045.42
2023-01-31T07:07:29.405Z,98042.33
2023-01-31T07:09:58.414Z,98054.48
2023-01-31T07:12:27.907Z,98058.20
2023-01-31T07:14:56.727Z,98054.41
2023-01-31T07:17:25.845Z,98048.38
2023-01-31T07:19:54.780Z,98055.79
2023-01-31T07:22:23.670Z,98056.02
2023-01-31T07:24:52.253Z,98054.09
2023-01-31T07:27:21.046Z,98060.17
2023-01-31T07:29:50.416Z,98063.71
2023-01-31T07:32:20.766Z,98062.13
2023-01-31T07:34:50.090Z,98068.09
2023-01-31T07:37:19.878Z,98070.38
2023-01-31T07:39:48.467Z,98073.93
2023-01-31T07:42:18.791Z,98071.00
2023-01-31T07:44:47.476Z,98077.80
2023-01-31T07:47:16.156Z,98080.51
2023-01-31T07:49:45.368Z,98083.16
2023-01-31T07:52:14.143Z,98093.55
2023-01-31T07:54:43.036Z,98096.56
2023-01-31T07:57:18.038Z,98103.42
2023-01-31T07:59:47.274Z,98099.13
2023-01-31T08:02:36.504Z,98101.04
2023-01-31T08:05:06.150Z,98099.30
2023-01-31T08:07:34.738Z,98098.40
2023-01-31T08:10:03.458Z,98100.44
2023-01-31T08:12:33.082Z,98104.95
2023-01-31T08:15:01.906Z,98122.70
2023-01-31T08:17:32.187Z,98143.00
2023-01-31T08:20:01.195Z,98155.89
2023-01-31T08:22:30.501Z,98167.88
2023-01-31T08:25:00.198Z,98178.95
2023-01-31T08:27:29.504Z,98189.66
2023-01-31T08:29:58.531Z,98206.89
2023-01-31T08:32:27.151Z,98220.68
2023-01-31T08:34:57.264Z,98229.24
2023-01-31T08:37:34.361Z,98231.48
2023-01-31T08:40:12.539Z,98234.31
2023-01-31T08:42:58.001Z,98242.85
2023-01-31T08:45:27.749Z,98248.17
2023-01-31T08:48:00.610Z,98251.23
2023-01-31T08:50:40.587Z,98255.55
2023-01-31T08:53:20.088Z,98253.33
2023-01-31T08:55:50.167Z,98253.20
2023-01-31T08:58:18.994Z,98265.19
2023-01-31T09:00:50.031Z,98274.13
2023-01-31T09:03:20.036Z,98282.98
2023-01-31T09:05:54.242Z,98279.34
2023-01-31T09:08:24.080Z,98283.06
2023-01-31T09:10:58.567Z,98271.67
2023-01-31T09:13:33.544Z,98262.80
2023-01-31T09:16:11.874Z,98266.02
2023-01-31T09:18:41.279Z,98262.20
2023-01-31T09:21:32.439Z,98263.44
2023-01-31T09:24:04.456Z,98265.09
2023-01-31T09:26:35.245Z,98272.84
2023-01-31T09:29:05.996Z,98271.05
2023-01-31T09:32:00.198Z,98279.59
2023-01-31T09:34:39.718Z,98273.34
2023-01-31T09:37:20.540Z,98270.20
2023-01-31T09:40:35.263Z,98253.33
2023-01-31T09:47:46.635Z,98232.98
2023-01-31T09:50:33.391Z,98236.00
2023-01-31T09:53:03.867Z,98232.81
2023-01-31T09:55:45.732Z,98234.40
2023-01-31T09:58:47.386Z,98235.23
2023-01-31T10:01:34.621Z,98234.23
2023-01-31T10:04:18.051Z,98240.95
2023-01-31T10:06:59.259Z,98234.31
2023-01-31T10:09:45.417Z,98237.80
2023-01-31T10:12:42.263Z,98239.88
2023-01-31T10:15:25.914Z,98234.77
2023-01-31T10:18:01.775Z,98232.06
2023-01-31T10:20:33.653Z,98230.65
2023-01-31T10:32:38.721Z,98307.23
2023-01-31T10:35:46.469Z,98239.36
2023-01-31T10:38:41.038Z,98243.79
2023-01-31T10:41:14.625Z,98250.54
2023-01-31T10:43:53.739Z,98248.60
2023-01-31T10:46:22.204Z,98248.06
2023-01-31T10:48:49.411Z,98245.47
2023-01-31T10:52:03.803Z,98239.13
2023-01-31T10:54:49.467Z,98229.83
2023-01-31T10:57:17.674Z,98231.86
2023-01-31T10:59:46.616Z,98230.40
2023-01-31T11:02:22.202Z,98217.10
2023-01-31T11:05:28.985Z,98208.30
2023-01-31T11:08:29.074Z,98193.84
2023-01-31T11:10:57.339Z,98194.89
2023-01-31T11:13:24.592Z,98197.30
2023-01-31T11:16:10.855Z,98202.67
2023-01-31T11:18:44.706Z,98207.48
2023-01-31T11:21:33.432Z,98212.48
2023-01-31T11:24:22.113Z,98211.09
2023-01-31T11:26:55.393Z,98207.52
2023-01-31T11:29:27.359Z,98205.06
2023-01-31T11:31:54.656Z,98198.06
2023-01-31T11:34:26.477Z,98192.19
2023-01-31T11:36:53.932Z,98192.55
2023-01-31T11:39:32.168Z,98202.36
2023-01-31T11:42:15.110Z,98204.21
2023-01-31T11:45:04.327Z,98214.96
2023-01-31T11:48:01.664Z,98218.04
2023-01-31T11:50:37.595Z,98211.53
2023-01-31T11:53:15.718Z,98212.64
2023-01-31T11:55:46.229Z,98207.42
2023-01-31T11:58:35.677Z,98206.27
2023-01-31T12:01:16.254Z,98204.70
2023-01-31T12:04:02.653Z,98208.50
2023-01-31T12:07:28.659Z,98210.54
2023-01-31T12:09:55.902Z,98212.95
2023-01-31T12:12:44.912Z,98206.87
2023-01-31T12:15:16.816Z,98208.56
2023-01-31T12:17:47.475Z,98204.98
2023-01-31T12:20:33.856Z,98202.25
2023-01-31T12:23:10.693Z,98199.85
2023-01-31T12:26:04.703Z,98201.17
2023-01-31T12:28:52.032Z,98197.08
2023-01-31T12:31:26.661Z,98195.61
2023-01-31T12:34:33.166Z,98196.30
2023-01-31T12:37:10.932Z,98195.18
2023-01-31T12:39:56.915Z,98193.86
2023-01-31T12:42:48.126Z,98193.41
2023-01-31T12:45:25.110Z,98193.59
2023-01-31T12:48:10.997Z,98190.15
2023-01-31T12:50:56.596Z,98190.98
2023-01-31T12:54:04.997Z,98184.56
2023-01-31T12:56:41.464Z,98182.81
2023-01-31T13:00:00.024Z,98178.98
2023-01-31T13:02:57.647Z,98175.45
2023-01-31T13:05:54.721Z,98172.62
2023-01-31T13:08:30.255Z,98166.46
2023-01-31T13:11:00.554Z,98162.30
2023-01-31T13:13:45.493Z,98156.25
2023-01-31T13:16:38.218Z,98152.22
2023-01-31T13:19:33.835Z,98144.21
2023-01-31T13:22:05.314Z,98132.37
2023-01-31T13:24:54.445Z,98120.50
2023-01-31T13:27:29.808Z,98110.91
2023-01-31T13:30:04.384Z,98101.97
2023-01-31T13:32:41.738Z,98097.61
2023-01-31T13:35:19.500Z,98087.86
2023-01-31T13:37:48.395Z,98082.38
2023-01-31T13:40:26.001Z,98074.20
2023-01-31T13:42:53.425Z,98069.02
2023-01-31T13:45:33.506Z,98057.20
2023-01-31T13:48:10.084Z,98047.90
2023-01-31T13:50:48.799Z,98037.12
2023-01-31T13:53:24.031Z,98027.61
2023-01-31T13:55:53.459Z,98015.49
2023-01-31T13:58:35.087Z,98012.38
2023-01-31T14:01:07.950Z,98002.86
2023-01-31T14:04:11.502Z,97994.96
2023-01-31T14:07:09.746Z,97981.53
2023-01-31T14:09:43.586Z,97967.70
2023-01-31T14:12:17.089Z,97959.87
2023-01-31T14:14:47.027Z,97953.11
2023-01-31T14:17:23.269Z,97941.61
2023-01-31T14:19:52.646Z,97933.56
2023-01-31T14:22:35.638Z,97929.20
2023-01-31T14:25:09.713Z,97916.27
2023-01-31T14:27:48.678Z,97900.52
2023-01-31T14:30:35.586Z,97900.32
2023-01-31T14:33:11.860Z,97895.38
2023-01-31T14:49:10.190Z,97880.33
2023-01-31T14:52:04.805Z,97783.73
2023-01-31T14:58:32.434Z,97793.80
2023-01-31T15:01:01.776Z,97798.20
2023-01-31T15:03:38.556Z,97798.66
2023-01-31T15:06:07.056Z,97803.06
2023-01-31T15:08:40.391Z,97800.71
2023-01-31T15:11:40.915Z,97798.59
2023-01-31T15:14:44.075Z,97792.06
2023-01-31T15:17:33.024Z,97791.02
2023-01-31T15:20:43.652Z,97779.59
2023-01-31T15:23:31.838Z,97773.05
2023-01-31T15:26:00.418Z,97763.73
2023-01-31T15:28:52.022Z,97757.34
2023-01-31T15:31:33.881Z,97742.21
2023-01-31T15:34:13.820Z,97736.06
2023-01-31T15:38:05.857Z,97727.50
2023-01-31T15:40:40.487Z,97711.59
2023-01-31T15:43:22.817Z,97706.24
2023-01-31T15:45:58.853Z,97694.48
2023-01-31T15:48:41.665Z,97687.23
2023-01-31T15:51:23.499Z,97665.59
2023-01-31T15:54:20.035Z,97635.76
2023-01-31T15:57:33.741Z,97625.06
2023-01-31T16:00:12.526Z,97616.73
2023-01-31T16:02:48.773Z,97610.41
2023-01-31T16:05:21.876Z,97603.58
2023-01-31T16:07:55.147Z,97597.10
2023-01-31T16:10:24.381Z,97587.17
2023-01-31T16:12:54.482Z,97574.39
2023-01-31T16:15:32.513Z,97569.22
2023-01-31T16:18:13.590Z,97561.23
2023-01-31T16:24:27.692Z,97533.88
2023-01-31T16:27:06.938Z,97525.52
2023-01-31T16:29:40.790Z,97516.10
2023-01-31T16:32:41.561Z,97510.09
2023-01-31T16:35:25.489Z,97503.98
2023-01-31T16:38:05.430Z,97497.19
2023-01-31T16:40:36.275Z,97488.64
2023-01-31T16:43:18.998Z,97485.34
2023-01-31T16:45:55.634Z,97472.67
2023-01-31T16:48:24.383Z,97467.54
2023-01-31T16:50:54.257Z,97461.13
2023-01-31T16:53:29.845Z,97456.82
2023-01-31T16:56:13.413Z,97454.36
2023-01-31T16:58:58.271Z,97451.09
2023-01-31T17:01:28.990Z,97447.79
2023-01-31T17:04:05.020Z,97438.29
2023-01-31T17:06:33.602Z,97439.55
2023-01-31T17:09:06.294Z,97428.80
2023-01-31T17:11:43.130Z,97428.14
2023-01-31T17:14:14.094Z,97423.61
2023-01-31T17:16:42.767Z,97423.18
2023-01-31T17:19:12.579Z,97421.76
2023-01-31T17:21:42.051Z,97418.08
2023-01-31T17:24:14.983Z,97411.19
2023-01-31T17:26:43.446Z,97408.15
2023-01-31T17:29:12.010Z,97404.30
2023-01-31T17:31:42.555Z,97401.34
2023-01-31T17:34:17.734Z,97394.60
2023-01-31T17:36:46.637Z,97387.74
2023-01-31T17:39:15.367Z,97385.80
2023-01-31T17:41:47.174Z,97384.56
2023-01-31T17:44:16.083Z,97379.41
2023-01-31T17:46:45.176Z,97374.40
2023-01-31T17:49:14.687Z,97371.92
2023-01-31T17:51:43.622Z,97365.39
2023-01-31T17:54:15.903Z,97358.05
2023-01-31T17:56:44.388Z,97351.48
2023-01-31T17:59:21.784Z,97343.19
2023-01-31T18:01:56.409Z,97339.44
2023-01-31T18:04:25.269Z,97338.10
2023-01-31T18:06:54.955Z,97339.73
2023-01-31T18:09:23.617Z,97337.67
2023-01-31T18:11:52.571Z,97336.17
2023-01-31T18:14:21.277Z,97332.40
2023-01-31T18:16:54.434Z,97330.30
2023-01-31T18:19:23.075Z,97330.23
2023-01-31T18:21:55.199Z,97329.66
2023-01-31T18:24:25.177Z,97327.61
2023-01-31T18:26:54.461Z,97325.92
2023-01-31T18:29:26.861Z,97324.07
2023-01-31T18:32:02.832Z,97318.80
2023-01-31T18:34:35.864Z,97317.24
2023-01-31T18:37:07.009Z,97316.21
2023-01-31T18:39:35.630Z,97310.92
2023-01-31T18:42:07.373Z,97302.02
2023-01-31T18:44:37.871Z,97296.33
2023-01-31T18:47:06.395Z,97292.22
2023-01-31T18:49:34.957Z,97283.30
2023-01-31T18:52:04.127Z,97279.37
2023-01-31T18:54:34.885Z,97277.00
2023-01-31T18:57:03.992Z,97270.31
2023-01-31T18:59:35.940Z,97275.77
2023-01-31T19:02:05.357Z,97276.54
2023-01-31T19:04:34.507Z,97273.18
2023-01-31T19:07:03.053Z,97272.42
2023-01-31T19:09:32.494Z,97264.70
2023-01-31T19:12:06.927Z,97257.02
2023-01-31T19:14:35.982Z,97253.63
2023-01-31T19:17:05.955Z,97245.48
2023-01-31T19:19:34.975Z,97237.26
2023-01-31T19:22:03.469Z,97229.98
2023-01-31T19:24:33.266Z,97214.71
2023-01-31T19:27:06.104Z,97148.86
2023-01-31T19:29:36.455Z,97087.45
2023-01-31T19:32:06.560Z,97082.59
2023-01-31T19:34:36.911Z,97068.73
2023-01-31T19:37:05.461Z,97056.42
2023-01-31T19:39:34.178Z,97050.40
2023-01-31T19:42:02.746Z,97044.53
2023-01-31T19:44:32.483Z,97038.73
2023-01-31T19:47:00.948Z,97028.52
2023-01-31T19:49:29.853Z,97023.14
2023-01-31T19:51:58.340Z,97015.52
2023-01-31T19:54:28.070Z,97009.39
2023-01-31T19:56:57.010Z,97002.38
2023-01-31T19:59:25.688Z,96999.38
2023-01-31T20:01:54.252Z,96994.27
2023-01-31T20:04:23.248Z,96988.29
2023-01-31T20:06:52.547Z,96990.80
2023-01-31T20:09:21.080Z,96984.27
2023-01-31T20:11:51.409Z,96981.92
2023-01-31T20:14:21.133Z,96975.39
2023-01-31T20:16:49.680Z,96973.35
2023-01-31T20:19:20.499Z,96973.80
2023-01-31T20:21:50.138Z,96971.56
2023-01-31T20:24:18.796Z,96967.15
2023-01-31T20:26:47.447Z,96965.70
2023-01-31T20:29:15.852Z,96961.66
2023-01-31T20:31:44.659Z,96961.96
2023-01-31T20:34:13.117Z,96958.91
2023-01-31T20:36:41.806Z,96947.82
2023-01-31T20:39:12.565Z,96943.54
2023-01-31T20:41:41.446Z,96935.88
2023-01-31T20:44:10.339Z,96927.56
2023-01-31T20:46:39.916Z,96923.54
2023-01-31T20:49:08.369Z,96924.13
2023-01-31T20:51:37.227Z,96923.61
2023-01-31T20:54:06.439Z,96926.89
2023-01-31T20:56:34.893Z,96922.36
2023-01-31T20:59:04.351Z,96925.57
2023-01-31T21:01:33.661Z,96921.00
2023-01-31T21:04:02.910Z,96916.98
2023-01-31T21:06:34.231Z,96915.95
2023-01-31T21:09:03.257Z,96918.27
2023-01-31T21:11:32.067Z,96918.36
2023-01-31T21:14:00.697Z,96917.30
2023-01-31T21:16:29.074Z,96913.98
2023-01-31T21:18:58.264Z,96916.08
2023-01-31T21:21:26.725Z,96908.90
2023-01-31T21:23:57.322Z,96908.89
2023-01-31T21:26:26.948Z,96908.89
2023-01-31T21:28:55.712Z,96902.58
2023-01-31T21:31:25.085Z,96896.29
2023-01-31T21:33:53.646Z,96892.64
2023-01-31T21:36:24.890Z,96889.67
2023-01-31T21:38:55.840Z,96884.20
2023-01-31T21:41:43.512Z,96878.75
2023-01-31T21:44:11.992Z,96870.68
2023-01-31T21:46:40.865Z,96873.35
2023-01-31T21:49:09.308Z,96869.73
2023-01-31T21:51:37.997Z,96864.19
2023-01-31T21:54:06.600Z,96858.70
2023-01-31T21:56:35.169Z,96852.64
2023-01-31T21:59:04.313Z,96849.35
2023-01-31T22:01:34.979Z,96835.71
2023-01-31T22:04:03.811Z,96826.23
2023-01-31T22:06:42.900Z,96827.23
2023-01-31T22:09:11.900Z,96813.82
2023-01-31T22:11:40.667Z,96810.52
2023-01-31T22:14:11.144Z,96798.67
2023-01-31T22:16:41.679Z,96790.58
2023-01-31T22:19:13.107Z,96783.78
2023-01-31T22:21:43.168Z,96770.71
2023-01-31T22:24:11.911Z,96760.39
2023-01-31T22:26:43.098Z,96750.98
2023-01-31T22:29:14.299Z,96745.67
2023-01-31T22:31:43.810Z,96735.91
2023-01-31T22:34:16.805Z,96730.95
2023-01-31T22:36:45.398Z,96722.61
2023-01-31T22:39:16.316Z,96719.67
2023-01-31T22:41:45.512Z,96718.62
2023-01-31T22:44:14.038Z,96711.83
2023-01-31T22:46:42.666Z,96704.84
2023-01-31T22:49:11.155Z,96697.93
2023-01-31T22:51:39.713Z,96697.58
2023-01-31T22:54:09.557Z,96695.80
2023-01-31T22:56:41.479Z,96692.73
2023-01-31T22:59:10.110Z,96688.36
2023-01-31T23:01:40.431Z,96684.83
2023-01-31T23:04:10.041Z,96676.60
2023-01-31T23:06:39.620Z,96664.80
2023-01-31T23:09:11.353Z,96657.47
2023-01-31T23:11:41.113Z,96649.23
2023-01-31T23:14:09.691Z,96638.40
2023-01-31T23:16:58.128Z,96627.98
2023-01-31T23:19:28.569Z,96614.96
2023-01-31T23:21:56.993Z,96617.98
2023-01-31T23:24:25.599Z,96608.81
2023-01-31T23:26:54.944Z,96604.20
2023-01-31T23:29:23.893Z,96594.78
2023-01-31T23:31:52.463Z,96589.83
2023-01-31T23:34:21.205Z,96582.35
2023-01-31T23:36:49.701Z,96572.31
2023-01-31T23:39:18.946Z,96566.19
2023-01-31T23:41:47.806Z,96556.48
2023-01-31T23:44:16.421Z,96545.70
2023-01-31T23:46:45.232Z,96541.76
2023-01-31T23:49:13.787Z,96531.73
2023-01-31T23:51:42.407Z,96523.77
2023-01-31T23:54:11.098Z,96513.25
2023-01-31T23:56:39.763Z,96508.56
2023-01-31T23:59:08.621Z,96500.89
